sensor_id;sensor_type;location;lat;lon;timestamp;P1;durP1;ratioP1;P2;durP2;ratioP2
66425;SDS011;53237;46.158;14.604;2024-03-29T00:01:22;3.33;;;1.30;;
66425;SDS011;53237;46.158;14.604;2024-03-29T00:03:49;3.35;;;1.17;;
66425;SDS011;53237;46.158;14.604;2024-03-29T00:06:15;6.05;;;1.15;;
66425;SDS011;53237;46.158;14.604;2024-03-29T00:08:41;5.43;;;0.93;;
66425;SDS011;53237;46.158;14.604;2024-03-29T00:11:07;6.43;;;1.85;;
66425;SDS011;53237;46.158;14.604;2024-03-29T00:13:33;2.63;;;1.00;;
66425;SDS011;53237;46.158;14.604;2024-03-29T00:16:00;4.55;;;1.33;;
66425;SDS011;53237;46.158;14.604;2024-03-29T00:18:26;3.13;;;0.90;;
66425;SDS011;53237;46.158;14.604;2024-03-29T00:20:52;4.28;;;1.38;;
66425;SDS011;53237;46.158;14.604;2024-03-29T00:23:18;3.40;;;1.40;;
66425;SDS011;53237;46.158;14.604;2024-03-29T00:25:44;3.05;;;1.20;;
66425;SDS011;53237;46.158;14.604;2024-03-29T00:28:10;1.42;;;1.05;;
66425;SDS011;53237;46.158;14.604;2024-03-29T00:30:36;1.98;;;0.95;;
66425;SDS011;53237;46.158;14.604;2024-03-29T00:33:02;1.75;;;0.90;;
66425;SDS011;53237;46.158;14.604;2024-03-29T00:35:28;2.35;;;1.20;;
66425;SDS011;53237;46.158;14.604;2024-03-29T00:37:54;1.40;;;1.00;;
66425;SDS011;53237;46.158;14.604;2024-03-29T00:40:20;2.78;;;1.10;;
66425;SDS011;53237;46.158;14.604;2024-03-29T00:42:46;3.05;;;1.55;;
66425;SDS011;53237;46.158;14.604;2024-03-29T00:45:12;2.47;;;0.95;;
66425;SDS011;53237;46.158;14.604;2024-03-29T00:47:38;2.30;;;1.15;;
66425;SDS011;53237;46.158;14.604;2024-03-29T00:50:04;2.65;;;0.95;;
66425;SDS011;53237;46.158;14.604;2024-03-29T00:52:34;1.27;;;1.05;;
66425;SDS011;53237;46.158;14.604;2024-03-29T00:55:00;1.83;;;1.15;;
66425;SDS011;53237;46.158;14.604;2024-03-29T00:57:26;1.23;;;0.80;;
66425;SDS011;53237;46.158;14.604;2024-03-29T00:59:52;2.03;;;0.85;;
66425;SDS011;53237;46.158;14.604;2024-03-29T01:02:18;1.77;;;0.77;;
66425;SDS011;53237;46.158;14.604;2024-03-29T01:04:44;2.67;;;0.90;;
66425;SDS011;53237;46.158;14.604;2024-03-29T01:07:10;0.82;;;0.68;;
66425;SDS011;53237;46.158;14.604;2024-03-29T01:09:36;2.15;;;1.33;;
66425;SDS011;53237;46.158;14.604;2024-03-29T01:12:02;2.38;;;0.80;;
66425;SDS011;53237;46.158;14.604;2024-03-29T01:14:28;5.57;;;1.70;;
66425;SDS011;53237;46.158;14.604;2024-03-29T01:16:54;2.67;;;1.30;;
66425;SDS011;53237;46.158;14.604;2024-03-29T01:19:20;1.55;;;0.95;;
66425;SDS011;53237;46.158;14.604;2024-03-29T01:21:46;3.00;;;1.50;;
66425;SDS011;53237;46.158;14.604;2024-03-29T01:24:12;2.22;;;1.15;;
66425;SDS011;53237;46.158;14.604;2024-03-29T01:26:38;2.88;;;1.20;;
66425;SDS011;53237;46.158;14.604;2024-03-29T01:29:04;4.38;;;1.80;;
66425;SDS011;53237;46.158;14.604;2024-03-29T01:31:31;3.17;;;1.60;;
66425;SDS011;53237;46.158;14.604;2024-03-29T01:33:57;5.60;;;1.88;;
66425;SDS011;53237;46.158;14.604;2024-03-29T01:36:23;3.80;;;1.50;;
66425;SDS011;53237;46.158;14.604;2024-03-29T01:38:50;4.18;;;1.77;;
66425;SDS011;53237;46.158;14.604;2024-03-29T01:41:19;2.70;;;1.40;;
66425;SDS011;53237;46.158;14.604;2024-03-29T01:43:45;4.25;;;1.60;;
66425;SDS011;53237;46.158;14.604;2024-03-29T01:46:11;3.97;;;1.70;;
66425;SDS011;53237;46.158;14.604;2024-03-29T01:48:37;4.85;;;1.67;;
66425;SDS011;53237;46.158;14.604;2024-03-29T01:51:03;4.20;;;1.52;;
66425;SDS011;53237;46.158;14.604;2024-03-29T01:53:30;3.75;;;1.50;;
66425;SDS011;53237;46.158;14.604;2024-03-29T01:55:56;2.58;;;1.55;;
66425;SDS011;53237;46.158;14.604;2024-03-29T01:58:23;3.72;;;1.50;;
66425;SDS011;53237;46.158;14.604;2024-03-29T02:00:53;3.85;;;1.55;;
66425;SDS011;53237;46.158;14.604;2024-03-29T02:03:20;4.60;;;1.98;;
66425;SDS011;53237;46.158;14.604;2024-03-29T02:05:49;5.07;;;1.63;;
66425;SDS011;53237;46.158;14.604;2024-03-29T02:08:16;4.85;;;1.30;;
66425;SDS011;53237;46.158;14.604;2024-03-29T02:10:42;3.42;;;1.08;;
66425;SDS011;53237;46.158;14.604;2024-03-29T02:13:09;3.03;;;1.52;;
66425;SDS011;53237;46.158;14.604;2024-03-29T02:15:35;3.50;;;1.10;;
66425;SDS011;53237;46.158;14.604;2024-03-29T02:18:01;4.82;;;1.23;;
66425;SDS011;53237;46.158;14.604;2024-03-29T02:20:27;3.63;;;1.27;;
66425;SDS011;53237;46.158;14.604;2024-03-29T02:22:55;2.97;;;1.55;;
66425;SDS011;53237;46.158;14.604;2024-03-29T02:25:21;5.47;;;1.65;;
66425;SDS011;53237;46.158;14.604;2024-03-29T02:27:47;3.05;;;1.20;;
66425;SDS011;53237;46.158;14.604;2024-03-29T02:30:14;2.00;;;1.10;;
66425;SDS011;53237;46.158;14.604;2024-03-29T02:32:40;3.97;;;1.30;;
66425;SDS011;53237;46.158;14.604;2024-03-29T02:35:08;4.03;;;1.45;;
66425;SDS011;53237;46.158;14.604;2024-03-29T02:37:35;1.70;;;1.48;;
66425;SDS011;53237;46.158;14.604;2024-03-29T02:40:01;3.00;;;1.38;;
66425;SDS011;53237;46.158;14.604;2024-03-29T02:42:27;2.45;;;1.15;;
66425;SDS011;53237;46.158;14.604;2024-03-29T02:44:54;3.38;;;1.75;;
66425;SDS011;53237;46.158;14.604;2024-03-29T02:47:20;3.42;;;1.23;;
66425;SDS011;53237;46.158;14.604;2024-03-29T02:49:46;3.50;;;1.30;;
66425;SDS011;53237;46.158;14.604;2024-03-29T02:52:13;1.40;;;1.05;;
66425;SDS011;53237;46.158;14.604;2024-03-29T02:54:39;2.03;;;1.00;;
66425;SDS011;53237;46.158;14.604;2024-03-29T02:57:05;2.47;;;0.90;;
66425;SDS011;53237;46.158;14.604;2024-03-29T02:59:31;2.80;;;1.38;;
66425;SDS011;53237;46.158;14.604;2024-03-29T03:01:57;1.17;;;0.88;;
66425;SDS011;53237;46.158;14.604;2024-03-29T03:04:23;2.88;;;1.20;;
66425;SDS011;53237;46.158;14.604;2024-03-29T03:06:49;1.58;;;1.20;;
66425;SDS011;53237;46.158;14.604;2024-03-29T03:09:15;3.10;;;1.30;;
66425;SDS011;53237;46.158;14.604;2024-03-29T03:12:00;2.35;;;1.20;;
66425;SDS011;53237;46.158;14.604;2024-03-29T03:14:26;1.58;;;1.08;;
66425;SDS011;53237;46.158;14.604;2024-03-29T03:16:52;1.77;;;1.20;;
66425;SDS011;53237;46.158;14.604;2024-03-29T03:19:18;1.65;;;0.90;;
66425;SDS011;53237;46.158;14.604;2024-03-29T03:21:44;3.05;;;1.25;;
66425;SDS011;53237;46.158;14.604;2024-03-29T03:24:10;2.58;;;1.13;;
66425;SDS011;53237;46.158;14.604;2024-03-29T03:26:39;1.50;;;1.13;;
66425;SDS011;53237;46.158;14.604;2024-03-29T03:29:05;2.58;;;0.80;;
66425;SDS011;53237;46.158;14.604;2024-03-29T03:31:33;2.83;;;1.13;;
66425;SDS011;53237;46.158;14.604;2024-03-29T03:33:59;2.00;;;1.08;;
66425;SDS011;53237;46.158;14.604;2024-03-29T03:36:25;1.52;;;1.17;;
66425;SDS011;53237;46.158;14.604;2024-03-29T03:38:51;2.42;;;1.00;;
66425;SDS011;53237;46.158;14.604;2024-03-29T03:41:16;2.33;;;1.15;;
66425;SDS011;53237;46.158;14.604;2024-03-29T03:43:42;3.20;;;1.05;;
66425;SDS011;53237;46.158;14.604;2024-03-29T03:46:08;2.17;;;0.90;;
66425;SDS011;53237;46.158;14.604;2024-03-29T03:48:34;1.83;;;1.02;;
66425;SDS011;53237;46.158;14.604;2024-03-29T03:51:01;4.40;;;1.30;;
66425;SDS011;53237;46.158;14.604;2024-03-29T03:53:27;2.08;;;1.05;;
66425;SDS011;53237;46.158;14.604;2024-03-29T03:55:52;2.63;;;1.10;;
66425;SDS011;53237;46.158;14.604;2024-03-29T03:58:18;1.30;;;1.10;;
66425;SDS011;53237;46.158;14.604;2024-03-29T04:00:44;3.35;;;1.10;;
66425;SDS011;53237;46.158;14.604;2024-03-29T04:03:10;1.88;;;1.00;;
66425;SDS011;53237;46.158;14.604;2024-03-29T04:05:37;1.95;;;0.77;;
66425;SDS011;53237;46.158;14.604;2024-03-29T04:08:03;1.98;;;0.98;;
66425;SDS011;53237;46.158;14.604;2024-03-29T04:10:30;1.88;;;1.13;;
66425;SDS011;53237;46.158;14.604;2024-03-29T04:12:56;1.85;;;0.80;;
66425;SDS011;53237;46.158;14.604;2024-03-29T04:15:22;1.48;;;0.60;;
66425;SDS011;53237;46.158;14.604;2024-03-29T04:17:48;0.90;;;0.80;;
66425;SDS011;53237;46.158;14.604;2024-03-29T04:20:14;1.98;;;1.08;;
66425;SDS011;53237;46.158;14.604;2024-03-29T04:22:40;1.63;;;1.00;;
66425;SDS011;53237;46.158;14.604;2024-03-29T04:25:06;1.33;;;0.95;;
66425;SDS011;53237;46.158;14.604;2024-03-29T04:27:32;2.40;;;1.52;;
66425;SDS011;53237;46.158;14.604;2024-03-29T04:29:58;2.83;;;1.38;;
66425;SDS011;53237;46.158;14.604;2024-03-29T04:32:24;4.07;;;1.27;;
66425;SDS011;53237;46.158;14.604;2024-03-29T04:34:50;4.05;;;1.20;;
66425;SDS011;53237;46.158;14.604;2024-03-29T04:37:17;7.00;;;3.15;;
66425;SDS011;53237;46.158;14.604;2024-03-29T04:39:43;5.65;;;2.58;;
66425;SDS011;53237;46.158;14.604;2024-03-29T04:42:10;3.13;;;1.65;;
66425;SDS011;53237;46.158;14.604;2024-03-29T04:44:36;2.17;;;1.35;;
66425;SDS011;53237;46.158;14.604;2024-03-29T04:47:02;2.20;;;1.48;;
66425;SDS011;53237;46.158;14.604;2024-03-29T04:49:28;3.00;;;1.60;;
66425;SDS011;53237;46.158;14.604;2024-03-29T04:52:02;4.35;;;1.80;;
66425;SDS011;53237;46.158;14.604;2024-03-29T04:54:29;1.88;;;1.33;;
66425;SDS011;53237;46.158;14.604;2024-03-29T04:56:55;2.28;;;1.50;;
66425;SDS011;53237;46.158;14.604;2024-03-29T04:59:21;3.17;;;1.38;;
66425;SDS011;53237;46.158;14.604;2024-03-29T05:01:48;1.70;;;1.23;;
66425;SDS011;53237;46.158;14.604;2024-03-29T05:04:18;3.97;;;2.25;;
66425;SDS011;53237;46.158;14.604;2024-03-29T05:06:50;2.42;;;1.65;;
66425;SDS011;53237;46.158;14.604;2024-03-29T05:09:17;1.95;;;1.30;;
66425;SDS011;53237;46.158;14.604;2024-03-29T05:11:43;3.78;;;1.60;;
66425;SDS011;53237;46.158;14.604;2024-03-29T05:14:09;2.70;;;1.73;;
66425;SDS011;53237;46.158;14.604;2024-03-29T05:16:35;2.45;;;1.38;;
66425;SDS011;53237;46.158;14.604;2024-03-29T05:19:01;3.30;;;1.63;;
66425;SDS011;53237;46.158;14.604;2024-03-29T05:21:27;2.05;;;1.20;;
66425;SDS011;53237;46.158;14.604;2024-03-29T05:23:53;2.85;;;1.30;;
66425;SDS011;53237;46.158;14.604;2024-03-29T05:26:19;2.58;;;1.67;;
66425;SDS011;53237;46.158;14.604;2024-03-29T05:28:45;3.15;;;1.40;;
66425;SDS011;53237;46.158;14.604;2024-03-29T05:31:13;5.82;;;2.80;;
66425;SDS011;53237;46.158;14.604;2024-03-29T05:33:42;5.30;;;2.97;;
66425;SDS011;53237;46.158;14.604;2024-03-29T05:36:10;5.70;;;1.90;;
66425;SDS011;53237;46.158;14.604;2024-03-29T05:38:38;3.22;;;1.73;;
66425;SDS011;53237;46.158;14.604;2024-03-29T05:41:04;5.43;;;1.88;;
66425;SDS011;53237;46.158;14.604;2024-03-29T05:43:30;2.58;;;1.73;;
66425;SDS011;53237;46.158;14.604;2024-03-29T05:45:56;17.35;;;9.18;;
66425;SDS011;53237;46.158;14.604;2024-03-29T05:48:22;12.20;;;6.78;;
66425;SDS011;53237;46.158;14.604;2024-03-29T05:50:48;5.63;;;3.65;;
66425;SDS011;53237;46.158;14.604;2024-03-29T05:53:14;5.97;;;3.22;;
66425;SDS011;53237;46.158;14.604;2024-03-29T05:55:41;6.47;;;3.10;;
66425;SDS011;53237;46.158;14.604;2024-03-29T05:58:06;5.05;;;3.00;;
66425;SDS011;53237;46.158;14.604;2024-03-29T06:00:33;12.18;;;6.13;;
66425;SDS011;53237;46.158;14.604;2024-03-29T06:02:59;10.45;;;5.57;;
66425;SDS011;53237;46.158;14.604;2024-03-29T06:05:27;9.75;;;5.20;;
66425;SDS011;53237;46.158;14.604;2024-03-29T06:07:53;13.93;;;6.25;;
66425;SDS011;53237;46.158;14.604;2024-03-29T06:10:19;9.18;;;5.53;;
66425;SDS011;53237;46.158;14.604;2024-03-29T06:12:45;6.28;;;3.35;;
66425;SDS011;53237;46.158;14.604;2024-03-29T06:15:11;6.35;;;3.55;;
66425;SDS011;53237;46.158;14.604;2024-03-29T06:17:56;5.13;;;3.85;;
66425;SDS011;53237;46.158;14.604;2024-03-29T06:20:22;6.10;;;3.83;;
66425;SDS011;53237;46.158;14.604;2024-03-29T06:22:48;6.72;;;3.83;;
66425;SDS011;53237;46.158;14.604;2024-03-29T06:25:15;5.30;;;3.58;;
66425;SDS011;53237;46.158;14.604;2024-03-29T06:27:41;6.45;;;3.75;;
66425;SDS011;53237;46.158;14.604;2024-03-29T06:30:12;8.07;;;3.72;;
66425;SDS011;53237;46.158;14.604;2024-03-29T06:32:39;6.43;;;4.03;;
66425;SDS011;53237;46.158;14.604;2024-03-29T06:35:05;6.38;;;3.75;;
66425;SDS011;53237;46.158;14.604;2024-03-29T06:37:31;7.25;;;3.30;;
66425;SDS011;53237;46.158;14.604;2024-03-29T06:39:57;8.07;;;3.67;;
66425;SDS011;53237;46.158;14.604;2024-03-29T06:42:23;7.35;;;3.38;;
66425;SDS011;53237;46.158;14.604;2024-03-29T06:44:50;11.48;;;4.30;;
66425;SDS011;53237;46.158;14.604;2024-03-29T06:47:17;10.57;;;4.72;;
66425;SDS011;53237;46.158;14.604;2024-03-29T06:49:43;9.52;;;5.57;;
66425;SDS011;53237;46.158;14.604;2024-03-29T06:52:09;7.57;;;4.38;;
66425;SDS011;53237;46.158;14.604;2024-03-29T06:54:35;8.07;;;4.43;;
66425;SDS011;53237;46.158;14.604;2024-03-29T06:57:01;11.23;;;5.20;;
66425;SDS011;53237;46.158;14.604;2024-03-29T06:59:28;11.30;;;3.92;;
66425;SDS011;53237;46.158;14.604;2024-03-29T07:01:54;11.73;;;4.00;;
66425;SDS011;53237;46.158;14.604;2024-03-29T07:04:20;5.35;;;3.30;;
66425;SDS011;53237;46.158;14.604;2024-03-29T07:06:46;5.63;;;3.25;;
66425;SDS011;53237;46.158;14.604;2024-03-29T07:09:15;8.15;;;2.95;;
66425;SDS011;53237;46.158;14.604;2024-03-29T07:11:41;5.50;;;2.58;;
66425;SDS011;53237;46.158;14.604;2024-03-29T07:14:07;5.75;;;3.03;;
66425;SDS011;53237;46.158;14.604;2024-03-29T07:16:33;7.63;;;3.35;;
66425;SDS011;53237;46.158;14.604;2024-03-29T07:18:59;5.82;;;3.05;;
66425;SDS011;53237;46.158;14.604;2024-03-29T07:21:25;7.03;;;4.13;;
66425;SDS011;53237;46.158;14.604;2024-03-29T07:23:51;9.98;;;3.58;;
66425;SDS011;53237;46.158;14.604;2024-03-29T07:26:17;7.43;;;3.17;;
66425;SDS011;53237;46.158;14.604;2024-03-29T07:28:43;10.73;;;4.57;;
66425;SDS011;53237;46.158;14.604;2024-03-29T07:31:09;16.25;;;4.05;;
66425;SDS011;53237;46.158;14.604;2024-03-29T07:33:35;8.57;;;4.90;;
66425;SDS011;53237;46.158;14.604;2024-03-29T07:36:02;9.80;;;4.63;;
66425;SDS011;53237;46.158;14.604;2024-03-29T07:38:29;8.13;;;5.97;;
66425;SDS011;53237;46.158;14.604;2024-03-29T07:40:55;8.50;;;4.53;;
66425;SDS011;53237;46.158;14.604;2024-03-29T07:43:21;11.40;;;5.03;;
66425;SDS011;53237;46.158;14.604;2024-03-29T07:45:47;7.88;;;3.78;;
66425;SDS011;53237;46.158;14.604;2024-03-29T07:48:14;6.93;;;4.00;;
66425;SDS011;53237;46.158;14.604;2024-03-29T07:50:41;9.43;;;4.55;;
66425;SDS011;53237;46.158;14.604;2024-03-29T07:53:07;12.30;;;7.22;;
66425;SDS011;53237;46.158;14.604;2024-03-29T07:55:40;5.43;;;4.93;;
66425;SDS011;53237;46.158;14.604;2024-03-29T07:58:06;8.35;;;4.03;;
66425;SDS011;53237;46.158;14.604;2024-03-29T08:00:34;7.60;;;5.10;;
66425;SDS011;53237;46.158;14.604;2024-03-29T08:03:00;6.85;;;5.10;;
66425;SDS011;53237;46.158;14.604;2024-03-29T08:05:27;7.07;;;3.42;;
66425;SDS011;53237;46.158;14.604;2024-03-29T08:07:53;6.20;;;3.75;;
66425;SDS011;53237;46.158;14.604;2024-03-29T08:10:22;5.25;;;2.80;;
66425;SDS011;53237;46.158;14.604;2024-03-29T08:12:48;6.22;;;3.22;;
66425;SDS011;53237;46.158;14.604;2024-03-29T08:15:15;6.15;;;2.47;;
66425;SDS011;53237;46.158;14.604;2024-03-29T08:17:43;5.80;;;2.45;;
66425;SDS011;53237;46.158;14.604;2024-03-29T08:20:09;4.45;;;2.42;;
66425;SDS011;53237;46.158;14.604;2024-03-29T08:22:35;5.95;;;2.53;;
66425;SDS011;53237;46.158;14.604;2024-03-29T08:25:01;4.53;;;2.10;;
66425;SDS011;53237;46.158;14.604;2024-03-29T08:27:27;7.22;;;2.42;;
66425;SDS011;53237;46.158;14.604;2024-03-29T08:29:54;8.05;;;2.15;;
66425;SDS011;53237;46.158;14.604;2024-03-29T08:32:20;4.70;;;2.13;;
66425;SDS011;53237;46.158;14.604;2024-03-29T08:34:46;6.68;;;2.08;;
66425;SDS011;53237;46.158;14.604;2024-03-29T08:37:12;4.60;;;2.53;;
66425;SDS011;53237;46.158;14.604;2024-03-29T08:39:38;14.70;;;7.53;;
66425;SDS011;53237;46.158;14.604;2024-03-29T08:42:04;6.47;;;3.88;;
66425;SDS011;53237;46.158;14.604;2024-03-29T08:44:32;4.18;;;3.00;;
66425;SDS011;53237;46.158;14.604;2024-03-29T08:46:58;7.20;;;3.15;;
66425;SDS011;53237;46.158;14.604;2024-03-29T08:49:26;7.40;;;4.78;;
66425;SDS011;53237;46.158;14.604;2024-03-29T08:51:52;18.55;;;12.15;;
66425;SDS011;53237;46.158;14.604;2024-03-29T08:54:18;9.55;;;5.63;;
66425;SDS011;53237;46.158;14.604;2024-03-29T08:56:44;9.05;;;5.45;;
66425;SDS011;53237;46.158;14.604;2024-03-29T08:59:10;6.88;;;4.07;;
66425;SDS011;53237;46.158;14.604;2024-03-29T09:01:42;7.03;;;3.97;;
66425;SDS011;53237;46.158;14.604;2024-03-29T09:04:08;7.53;;;2.88;;
66425;SDS011;53237;46.158;14.604;2024-03-29T09:06:36;6.22;;;2.53;;
66425;SDS011;53237;46.158;14.604;2024-03-29T09:09:03;9.48;;;2.78;;
66425;SDS011;53237;46.158;14.604;2024-03-29T09:11:29;9.40;;;2.60;;
66425;SDS011;53237;46.158;14.604;2024-03-29T09:13:55;6.03;;;2.40;;
66425;SDS011;53237;46.158;14.604;2024-03-29T09:16:23;13.43;;;8.85;;
66425;SDS011;53237;46.158;14.604;2024-03-29T09:18:50;7.80;;;3.38;;
66425;SDS011;53237;46.158;14.604;2024-03-29T09:21:16;5.82;;;2.75;;
66425;SDS011;53237;46.158;14.604;2024-03-29T09:23:42;4.32;;;2.22;;
66425;SDS011;53237;46.158;14.604;2024-03-29T09:26:08;5.95;;;2.53;;
66425;SDS011;53237;46.158;14.604;2024-03-29T09:28:34;6.65;;;3.28;;
66425;SDS011;53237;46.158;14.604;2024-03-29T09:31:02;4.70;;;2.22;;
66425;SDS011;53237;46.158;14.604;2024-03-29T09:33:28;8.05;;;2.70;;
66425;SDS011;53237;46.158;14.604;2024-03-29T09:35:54;5.85;;;2.33;;
66425;SDS011;53237;46.158;14.604;2024-03-29T09:38:20;6.20;;;2.30;;
66425;SDS011;53237;46.158;14.604;2024-03-29T09:40:47;6.55;;;2.55;;
66425;SDS011;53237;46.158;14.604;2024-03-29T09:43:16;6.35;;;2.53;;
66425;SDS011;53237;46.158;14.604;2024-03-29T09:45:43;5.65;;;2.55;;
66425;SDS011;53237;46.158;14.604;2024-03-29T09:48:09;7.80;;;2.88;;
66425;SDS011;53237;46.158;14.604;2024-03-29T09:50:36;9.18;;;2.75;;
66425;SDS011;53237;46.158;14.604;2024-03-29T09:53:02;7.15;;;2.97;;
66425;SDS011;53237;46.158;14.604;2024-03-29T09:55:30;5.97;;;2.40;;
66425;SDS011;53237;46.158;14.604;2024-03-29T09:57:56;7.63;;;2.60;;
66425;SDS011;53237;46.158;14.604;2024-03-29T10:00:23;7.15;;;2.63;;
66425;SDS011;53237;46.158;14.604;2024-03-29T10:02:49;6.20;;;2.40;;
66425;SDS011;53237;46.158;14.604;2024-03-29T10:05:18;7.20;;;2.28;;
66425;SDS011;53237;46.158;14.604;2024-03-29T10:07:46;10.35;;;2.92;;
66425;SDS011;53237;46.158;14.604;2024-03-29T10:10:12;9.25;;;2.50;;
66425;SDS011;53237;46.158;14.604;2024-03-29T10:12:38;8.30;;;2.58;;
66425;SDS011;53237;46.158;14.604;2024-03-29T10:15:04;7.00;;;2.28;;
66425;SDS011;53237;46.158;14.604;2024-03-29T10:17:33;5.97;;;2.30;;
66425;SDS011;53237;46.158;14.604;2024-03-29T10:20:00;5.30;;;2.03;;
66425;SDS011;53237;46.158;14.604;2024-03-29T10:22:28;5.28;;;2.40;;
66425;SDS011;53237;46.158;14.604;2024-03-29T10:24:54;5.88;;;2.50;;
66425;SDS011;53237;46.158;14.604;2024-03-29T10:27:24;6.60;;;2.53;;
66425;SDS011;53237;46.158;14.604;2024-03-29T10:29:51;6.40;;;2.70;;
66425;SDS011;53237;46.158;14.604;2024-03-29T10:32:17;7.63;;;3.35;;
66425;SDS011;53237;46.158;14.604;2024-03-29T10:34:43;6.70;;;2.50;;
66425;SDS011;53237;46.158;14.604;2024-03-29T10:37:09;5.53;;;2.65;;
66425;SDS011;53237;46.158;14.604;2024-03-29T10:39:35;6.15;;;2.53;;
66425;SDS011;53237;46.158;14.604;2024-03-29T10:42:02;6.18;;;2.55;;
66425;SDS011;53237;46.158;14.604;2024-03-29T10:44:30;6.95;;;2.33;;
66425;SDS011;53237;46.158;14.604;2024-03-29T10:46:57;3.92;;;2.10;;
66425;SDS011;53237;46.158;14.604;2024-03-29T10:49:23;5.93;;;2.40;;
66425;SDS011;53237;46.158;14.604;2024-03-29T10:51:49;6.60;;;2.70;;
66425;SDS011;53237;46.158;14.604;2024-03-29T10:54:16;7.03;;;2.80;;
66425;SDS011;53237;46.158;14.604;2024-03-29T10:56:47;4.47;;;2.28;;
66425;SDS011;53237;46.158;14.604;2024-03-29T10:59:33;6.20;;;2.63;;
66425;SDS011;53237;46.158;14.604;2024-03-29T11:02:06;7.07;;;2.60;;
66425;SDS011;53237;46.158;14.604;2024-03-29T11:04:37;6.70;;;2.55;;
66425;SDS011;53237;46.158;14.604;2024-03-29T11:07:10;9.48;;;5.10;;
66425;SDS011;53237;46.158;14.604;2024-03-29T11:09:39;6.20;;;2.70;;
66425;SDS011;53237;46.158;14.604;2024-03-29T11:12:06;8.63;;;2.38;;
66425;SDS011;53237;46.158;14.604;2024-03-29T11:14:35;5.90;;;2.40;;
66425;SDS011;53237;46.158;14.604;2024-03-29T11:17:03;6.78;;;2.85;;
66425;SDS011;53237;46.158;14.604;2024-03-29T11:19:30;6.13;;;2.75;;
66425;SDS011;53237;46.158;14.604;2024-03-29T11:21:56;4.57;;;2.40;;
66425;SDS011;53237;46.158;14.604;2024-03-29T11:24:22;6.32;;;2.65;;
66425;SDS011;53237;46.158;14.604;2024-03-29T11:26:49;9.88;;;3.90;;
66425;SDS011;53237;46.158;14.604;2024-03-29T11:29:19;7.00;;;2.25;;
66425;SDS011;53237;46.158;14.604;2024-03-29T11:31:46;9.52;;;2.92;;
66425;SDS011;53237;46.158;14.604;2024-03-29T11:34:14;8.93;;;3.03;;
66425;SDS011;53237;46.158;14.604;2024-03-29T11:36:40;8.77;;;2.72;;
66425;SDS011;53237;46.158;14.604;2024-03-29T11:39:06;9.18;;;2.60;;
66425;SDS011;53237;46.158;14.604;2024-03-29T11:41:33;5.50;;;2.20;;
66425;SDS011;53237;46.158;14.604;2024-03-29T11:43:59;8.63;;;2.40;;
66425;SDS011;53237;46.158;14.604;2024-03-29T11:46:25;8.52;;;2.45;;
66425;SDS011;53237;46.158;14.604;2024-03-29T11:48:51;7.63;;;2.40;;
66425;SDS011;53237;46.158;14.604;2024-03-29T11:51:19;7.28;;;2.47;;
66425;SDS011;53237;46.158;14.604;2024-03-29T11:53:48;7.85;;;2.70;;
66425;SDS011;53237;46.158;14.604;2024-03-29T11:56:18;7.07;;;2.30;;
66425;SDS011;53237;46.158;14.604;2024-03-29T11:58:45;5.50;;;2.20;;
66425;SDS011;53237;46.158;14.604;2024-03-29T12:01:11;6.72;;;2.50;;
66425;SDS011;53237;46.158;14.604;2024-03-29T12:03:39;7.20;;;2.70;;
66425;SDS011;53237;46.158;14.604;2024-03-29T12:06:06;5.72;;;2.42;;
66425;SDS011;53237;46.158;14.604;2024-03-29T12:08:32;6.40;;;3.35;;
66425;SDS011;53237;46.158;14.604;2024-03-29T12:10:59;8.32;;;5.07;;
66425;SDS011;53237;46.158;14.604;2024-03-29T12:13:25;6.63;;;4.03;;
66425;SDS011;53237;46.158;14.604;2024-03-29T12:15:51;6.85;;;4.20;;
66425;SDS011;53237;46.158;14.604;2024-03-29T12:18:19;8.25;;;3.35;;
66425;SDS011;53237;46.158;14.604;2024-03-29T12:20:45;8.93;;;3.75;;
66425;SDS011;53237;46.158;14.604;2024-03-29T12:23:13;11.20;;;4.88;;
66425;SDS011;53237;46.158;14.604;2024-03-29T12:25:39;8.13;;;3.35;;
66425;SDS011;53237;46.158;14.604;2024-03-29T12:28:05;7.90;;;3.40;;
66425;SDS011;53237;46.158;14.604;2024-03-29T12:30:31;5.63;;;2.80;;
66425;SDS011;53237;46.158;14.604;2024-03-29T12:33:08;4.82;;;2.50;;
66425;SDS011;53237;46.158;14.604;2024-03-29T12:35:35;8.18;;;3.38;;
66425;SDS011;53237;46.158;14.604;2024-03-29T12:38:02;5.88;;;2.78;;
66425;SDS011;53237;46.158;14.604;2024-03-29T12:40:29;10.00;;;3.05;;
66425;SDS011;53237;46.158;14.604;2024-03-29T12:43:01;6.88;;;3.17;;
66425;SDS011;53237;46.158;14.604;2024-03-29T12:45:28;8.15;;;2.92;;
66425;SDS011;53237;46.158;14.604;2024-03-29T12:47:54;8.90;;;3.72;;
66425;SDS011;53237;46.158;14.604;2024-03-29T12:53:00;16.55;;;11.30;;
66425;SDS011;53237;46.158;14.604;2024-03-29T12:55:27;8.55;;;5.28;;
66425;SDS011;53237;46.158;14.604;2024-03-29T12:57:55;11.32;;;5.43;;
66425;SDS011;53237;46.158;14.604;2024-03-29T13:00:21;8.13;;;5.00;;
66425;SDS011;53237;46.158;14.604;2024-03-29T13:02:48;10.52;;;5.10;;
66425;SDS011;53237;46.158;14.604;2024-03-29T13:05:14;7.78;;;3.83;;
66425;SDS011;53237;46.158;14.604;2024-03-29T13:07:40;6.30;;;2.90;;
66425;SDS011;53237;46.158;14.604;2024-03-29T13:10:06;11.80;;;4.63;;
66425;SDS011;53237;46.158;14.604;2024-03-29T13:12:38;7.05;;;5.35;;
66425;SDS011;53237;46.158;14.604;2024-03-29T13:15:14;8.52;;;4.72;;
66425;SDS011;53237;46.158;14.604;2024-03-29T13:17:40;7.63;;;3.78;;
66425;SDS011;53237;46.158;14.604;2024-03-29T13:20:06;8.43;;;3.92;;
66425;SDS011;53237;46.158;14.604;2024-03-29T13:22:33;7.13;;;3.63;;
66425;SDS011;53237;46.158;14.604;2024-03-29T13:24:59;7.97;;;4.15;;
66425;SDS011;53237;46.158;14.604;2024-03-29T13:27:25;8.65;;;3.33;;
66425;SDS011;53237;46.158;14.604;2024-03-29T13:29:51;6.57;;;3.22;;
66425;SDS011;53237;46.158;14.604;2024-03-29T13:32:18;6.45;;;2.80;;
66425;SDS011;53237;46.158;14.604;2024-03-29T13:34:44;9.30;;;2.80;;
66425;SDS011;53237;46.158;14.604;2024-03-29T13:37:10;5.68;;;2.45;;
66425;SDS011;53237;46.158;14.604;2024-03-29T13:39:36;5.35;;;2.00;;
66425;SDS011;53237;46.158;14.604;2024-03-29T13:42:02;7.18;;;2.22;;
66425;SDS011;53237;46.158;14.604;2024-03-29T13:44:28;7.15;;;2.70;;
66425;SDS011;53237;46.158;14.604;2024-03-29T13:46:53;8.35;;;3.45;;
66425;SDS011;53237;46.158;14.604;2024-03-29T13:49:20;9.18;;;3.00;;
66425;SDS011;53237;46.158;14.604;2024-03-29T13:51:46;9.95;;;3.95;;
66425;SDS011;53237;46.158;14.604;2024-03-29T13:54:12;6.13;;;2.95;;
66425;SDS011;53237;46.158;14.604;2024-03-29T13:56:39;5.45;;;2.53;;
66425;SDS011;53237;46.158;14.604;2024-03-29T13:59:05;5.70;;;2.35;;
66425;SDS011;53237;46.158;14.604;2024-03-29T14:01:31;4.55;;;2.10;;
66425;SDS011;53237;46.158;14.604;2024-03-29T14:03:57;5.07;;;2.20;;
66425;SDS011;53237;46.158;14.604;2024-03-29T14:06:23;6.15;;;2.20;;
66425;SDS011;53237;46.158;14.604;2024-03-29T14:08:49;6.93;;;2.20;;
66425;SDS011;53237;46.158;14.604;2024-03-29T14:11:15;7.18;;;4.25;;
66425;SDS011;53237;46.158;14.604;2024-03-29T14:13:43;7.65;;;2.88;;
66425;SDS011;53237;46.158;14.604;2024-03-29T14:16:12;7.13;;;3.55;;
66425;SDS011;53237;46.158;14.604;2024-03-29T14:18:38;7.03;;;3.05;;
66425;SDS011;53237;46.158;14.604;2024-03-29T14:21:04;10.70;;;7.30;;
66425;SDS011;53237;46.158;14.604;2024-03-29T14:23:30;6.60;;;4.22;;
66425;SDS011;53237;46.158;14.604;2024-03-29T14:25:56;7.40;;;3.38;;
66425;SDS011;53237;46.158;14.604;2024-03-29T14:28:22;6.95;;;3.15;;
66425;SDS011;53237;46.158;14.604;2024-03-29T14:30:48;6.28;;;2.60;;
66425;SDS011;53237;46.158;14.604;2024-03-29T14:33:15;5.38;;;2.20;;